sensor_id;sensor_type;location;lat;lon;timestamp;pressure;altitude;pressure_sealevel;temperature;humidity
67840;BME280;54636;51.684;5.142;2023-05-23T00:02:13;101941.81;;;14.34;100.00
67840;BME280;54636;51.684;5.142;2023-05-23T00:04:39;101960.84;;;14.43;100.00
67840;BME280;54636;51.684;5.142;2023-05-23T00:07:05;101958.84;;;14.44;100.00
67840;BME280;54636;51.684;5.142;2023-05-23T00:09:30;101959.78;;;14.41;100.00
67840;BME280;54636;51.684;5.142;2023-05-23T00:11:56;101959.44;;;14.33;100.00
67840;BME280;54636;51.684;5.142;2023-05-23T00:14:21;101971.88;;;14.34;100.00
67840;BME280;54636;51.684;5.142;2023-05-23T00:16:48;101968.41;;;14.34;100.00
67840;BME280;54636;51.684;5.142;2023-05-23T00:19:14;101964.63;;;14.31;100.00
67840;BME280;54636;51.684;5.142;2023-05-23T00:21:41;101969.91;;;14.35;100.00
67840;BME280;54636;51.684;5.142;2023-05-23T00:24:08;101967.59;;;14.28;100.00
67840;BME280;54636;51.684;5.142;2023-05-23T00:26:34;101976.69;;;14.19;100.00
67840;BME280;54636;51.684;5.142;2023-05-23T00:29:00;101980.38;;;14.16;100.00
67840;BME280;54636;51.684;5.142;2023-05-23T00:31:25;101975.31;;;14.09;100.00
67840;BME280;54636;51.684;5.142;2023-05-23T00:33:51;101976.53;;;14.08;100.00
67840;BME280;54636;51.684;5.142;2023-05-23T00:36:16;101966.03;;;13.86;100.00
67840;BME280;54636;51.684;5.142;2023-05-23T00:38:42;101985.59;;;13.99;100.00
67840;BME280;54636;51.684;5.142;2023-05-23T00:41:10;101986.63;;;14.02;100.00
67840;BME280;54636;51.684;5.142;2023-05-23T00:43:35;101977.81;;;13.92;100.00
67840;BME280;54636;51.684;5.142;2023-05-23T00:46:01;102003.03;;;13.87;100.00
67840;BME280;54636;51.684;5.142;2023-05-23T00:48:27;101994.97;;;13.78;100.00
67840;BME280;54636;51.684;5.142;2023-05-23T00:50:54;101992.72;;;13.76;100.00
67840;BME280;54636;51.684;5.142;2023-05-23T00:53:20;101999.41;;;13.75;100.00
67840;BME280;54636;51.684;5.142;2023-05-23T00:55:46;102001.84;;;13.73;100.00
67840;BME280;54636;51.684;5.142;2023-05-23T00:58:12;102007.69;;;13.81;100.00
67840;BME280;54636;51.684;5.142;2023-05-23T01:00:40;101983.28;;;13.77;100.00
67840;BME280;54636;51.684;5.142;2023-05-23T01:03:06;101999.00;;;13.82;100.00
67840;BME280;54636;51.684;5.142;2023-05-23T01:05:31;102001.00;;;13.82;100.00
67840;BME280;54636;51.684;5.142;2023-05-23T01:07:57;102003.53;;;13.85;100.00
67840;BME280;54636;51.684;5.142;2023-05-23T01:10:24;101991.28;;;13.81;100.00
67840;BME280;54636;51.684;5.142;2023-05-23T01:13:21;102006.44;;;13.82;100.00
67840;BME280;54636;51.684;5.142;2023-05-23T01:15:55;101992.72;;;13.76;100.00
67840;BME280;54636;51.684;5.142;2023-05-23T01:18:30;101990.38;;;13.69;100.00
67840;BME280;54636;51.684;5.142;2023-05-23T01:21:06;101998.63;;;13.75;100.00
67840;BME280;54636;51.684;5.142;2023-05-23T01:28:54;102006.16;;;13.80;100.00
67840;BME280;54636;51.684;5.142;2023-05-23T01:31:23;101997.88;;;13.74;100.00
67840;BME280;54636;51.684;5.142;2023-05-23T01:33:49;102012.28;;;13.75;100.00
67840;BME280;54636;51.684;5.142;2023-05-23T01:36:17;102014.09;;;13.78;100.00
67840;BME280;54636;51.684;5.142;2023-05-23T01:38:43;102008.25;;;13.70;100.00
67840;BME280;54636;51.684;5.142;2023-05-23T01:41:08;102007.78;;;13.72;100.00
67840;BME280;54636;51.684;5.142;2023-05-23T01:43:34;102007.41;;;13.79;100.00
67840;BME280;54636;51.684;5.142;2023-05-23T01:46:00;102003.06;;;13.72;100.00
67840;BME280;54636;51.684;5.142;2023-05-23T01:48:26;102002.31;;;13.72;100.00
67840;BME280;54636;51.684;5.142;2023-05-23T01:50:54;102013.72;;;13.70;100.00
67840;BME280;54636;51.684;5.142;2023-05-23T01:53:22;102002.97;;;13.67;100.00
67840;BME280;54636;51.684;5.142;2023-05-23T01:55:48;102003.75;;;13.67;100.00
67840;BME280;54636;51.684;5.142;2023-05-23T01:58:14;102010.50;;;13.72;100.00
67840;BME280;54636;51.684;5.142;2023-05-23T02:00:40;102021.63;;;13.68;100.00
67840;BME280;54636;51.684;5.142;2023-05-23T02:03:05;102020.13;;;13.67;100.00
67840;BME280;54636;51.684;5.142;2023-05-23T02:05:31;102025.59;;;13.67;100.00
67840;BME280;54636;51.684;5.142;2023-05-23T02:07:56;102030.09;;;13.70;100.00
67840;BME280;54636;51.684;5.142;2023-05-23T02:10:22;102027.03;;;13.63;100.00
67840;BME280;54636;51.684;5.142;2023-05-23T02:12:47;102029.00;;;13.62;100.00
67840;BME280;54636;51.684;5.142;2023-05-23T02:15:13;102035.22;;;13.63;100.00
67840;BME280;54636;51.684;5.142;2023-05-23T02:17:39;102035.41;;;13.59;100.00
67840;BME280;54636;51.684;5.142;2023-05-23T02:20:06;102039.72;;;13.51;100.00
67840;BME280;54636;51.684;5.142;2023-05-23T02:22:32;102040.47;;;13.51;100.00
67840;BME280;54636;51.684;5.142;2023-05-23T02:24:57;102036.81;;;13.55;100.00
67840;BME280;54636;51.684;5.142;2023-05-23T02:27:23;102032.09;;;13.55;100.00
67840;BME280;54636;51.684;5.142;2023-05-23T02:29:48;102044.06;;;13.58;100.00
67840;BME280;54636;51.684;5.142;2023-05-23T02:32:13;102040.09;;;13.59;100.00
67840;BME280;54636;51.684;5.142;2023-05-23T02:34:39;102045.66;;;13.64;100.00
67840;BME280;54636;51.684;5.142;2023-05-23T02:37:05;102043.41;;;13.63;100.00
67840;BME280;54636;51.684;5.142;2023-05-23T02:39:30;102054.03;;;13.61;100.00
67840;BME280;54636;51.684;5.142;2023-05-23T02:41:56;102050.56;;;13.60;100.00
67840;BME280;54636;51.684;5.142;2023-05-23T02:44:21;102036.06;;;13.54;100.00
67840;BME280;54636;51.684;5.142;2023-05-23T02:46:47;102041.34;;;13.58;100.00
67840;BME280;54636;51.684;5.142;2023-05-23T02:49:12;102037.38;;;13.59;100.00
67840;BME280;54636;51.684;5.142;2023-05-23T02:51:37;102028.63;;;13.55;100.00
67840;BME280;54636;51.684;5.142;2023-05-23T02:54:03;102018.28;;;13.59;100.00
67840;BME280;54636;51.684;5.142;2023-05-23T02:56:29;102028.34;;;13.52;100.00
67840;BME280;54636;51.684;5.142;2023-05-23T02:58:54;102023.34;;;13.51;100.00
67840;BME280;54636;51.684;5.142;2023-05-23T03:01:20;102024.84;;;13.52;100.00
67840;BME280;54636;51.684;5.142;2023-05-23T03:03:45;102025.34;;;13.50;100.00
67840;BME280;54636;51.684;5.142;2023-05-23T03:06:11;102038.31;;;13.56;100.00
67840;BME280;54636;51.684;5.142;2023-05-23T03:08:39;102030.13;;;13.56;100.00
67840;BME280;54636;51.684;5.142;2023-05-23T03:11:04;102034.38;;;13.57;100.00
67840;BME280;54636;51.684;5.142;2023-05-23T03:13:30;102040.47;;;13.51;100.00
67840;BME280;54636;51.684;5.142;2023-05-23T03:15:55;102040.75;;;13.54;100.00
67840;BME280;54636;51.684;5.142;2023-05-23T03:18:21;102037.19;;;13.47;100.00
67840;BME280;54636;51.684;5.142;2023-05-23T03:20:46;102031.91;;;13.44;100.00
67840;BME280;54636;51.684;5.142;2023-05-23T03:23:11;102044.25;;;13.54;100.00
67840;BME280;54636;51.684;5.142;2023-05-23T03:25:37;102037.94;;;13.48;100.00
67840;BME280;54636;51.684;5.142;2023-05-23T03:28:02;102040.28;;;13.55;100.00
67840;BME280;54636;51.684;5.142;2023-05-23T03:30:28;102045.38;;;13.47;100.00
67840;BME280;54636;51.684;5.142;2023-05-23T03:32:53;102044.72;;;13.52;100.00
67840;BME280;54636;51.684;5.142;2023-05-23T03:35:19;102050.75;;;13.57;100.00
67840;BME280;54636;51.684;5.142;2023-05-23T03:37:45;102053.66;;;13.53;100.00
67840;BME280;54636;51.684;5.142;2023-05-23T03:40:10;102045.09;;;13.45;100.00
67840;BME280;54636;51.684;5.142;2023-05-23T03:42:38;102046.59;;;13.46;100.00
67840;BME280;54636;51.684;5.142;2023-05-23T03:45:03;102055.16;;;13.54;100.00
67840;BME280;54636;51.684;5.142;2023-05-23T03:47:29;102056.09;;;13.51;100.00
67840;BME280;54636;51.684;5.142;2023-05-23T03:49:54;102060.91;;;13.56;100.00
67840;BME280;54636;51.684;5.142;2023-05-23T03:52:20;102065.34;;;13.54;100.00
67840;BME280;54636;51.684;5.142;2023-05-23T03:54:45;102063.06;;;13.52;100.00
67840;BME280;54636;51.684;5.142;2023-05-23T03:57:10;102067.50;;;13.49;100.00
67840;BME280;54636;51.684;5.142;2023-05-23T03:59:36;102067.22;;;13.47;100.00
67840;BME280;54636;51.684;5.142;2023-05-23T04:02:01;102075.59;;;13.44;100.00
67840;BME280;54636;51.684;5.142;2023-05-23T04:04:28;102073.13;;;13.46;100.00
67840;BME280;54636;51.684;5.142;2023-05-23T04:06:53;102071.81;;;13.41;100.00
67840;BME280;54636;51.684;5.142;2023-05-23T04:09:19;102077.09;;;13.45;100.00
67840;BME280;54636;51.684;5.142;2023-05-23T04:11:44;102085.00;;;13.43;100.00
67840;BME280;54636;51.684;5.142;2023-05-23T04:14:11;102084.34;;;13.48;100.00
67840;BME280;54636;51.684;5.142;2023-05-23T04:16:37;102081.50;;;13.42;100.00
67840;BME280;54636;51.684;5.142;2023-05-23T04:19:06;102083.50;;;13.42;100.00
67840;BME280;54636;51.684;5.142;2023-05-23T04:21:32;102081.22;;;13.40;100.00
67840;BME280;54636;51.684;5.142;2023-05-23T04:23:57;102081.59;;;13.33;100.00
67840;BME280;54636;51.684;5.142;2023-05-23T04:26:23;102074.25;;;13.25;100.00
67840;BME280;54636;51.684;5.142;2023-05-23T04:28:49;102089.88;;;13.39;100.00
67840;BME280;54636;51.684;5.142;2023-05-23T04:31:21;102088.28;;;13.32;100.00
67840;BME280;54636;51.684;5.142;2023-05-23T04:33:47;102097.28;;;13.24;100.00
67840;BME280;54636;51.684;5.142;2023-05-23T04:36:13;102119.56;;;13.22;100.00
67840;BME280;54636;51.684;5.142;2023-05-23T04:38:38;102098.56;;;13.13;100.00
67840;BME280;54636;51.684;5.142;2023-05-23T04:41:05;102104.28;;;13.15;100.00
67840;BME280;54636;51.684;5.142;2023-05-23T04:43:31;102107.94;;;13.12;100.00
67840;BME280;54636;51.684;5.142;2023-05-23T04:45:59;102117.19;;;13.15;100.00
67840;BME280;54636;51.684;5.142;2023-05-23T04:48:24;102128.09;;;13.15;100.00
67840;BME280;54636;51.684;5.142;2023-05-23T04:50:51;102129.78;;;13.12;100.00
67840;BME280;54636;51.684;5.142;2023-05-23T04:53:17;102126.75;;;13.10;100.00
67840;BME280;54636;51.684;5.142;2023-05-23T04:55:43;102142.66;;;13.12;100.00
67840;BME280;54636;51.684;5.142;2023-05-23T04:58:08;102134.81;;;13.05;100.00
67840;BME280;54636;51.684;5.142;2023-05-23T05:00:34;102136.44;;;12.97;100.00
67840;BME280;54636;51.684;5.142;2023-05-23T05:03:00;102138.22;;;13.00;100.00
67840;BME280;54636;51.684;5.142;2023-05-23T05:05:25;102136.50;;;13.02;100.00
67840;BME280;54636;51.684;5.142;2023-05-23T05:07:51;102140.28;;;13.05;100.00
67840;BME280;54636;51.684;5.142;2023-05-23T05:10:16;102138.31;;;13.05;100.00
67840;BME280;54636;51.684;5.142;2023-05-23T05:12:45;102147.25;;;13.06;100.00
67840;BME280;54636;51.684;5.142;2023-05-23T05:15:11;102146.97;;;13.04;100.00
67840;BME280;54636;51.684;5.142;2023-05-23T05:17:37;102147.63;;;12.99;100.00
67840;BME280;54636;51.684;5.142;2023-05-23T05:20:03;102157.19;;;12.94;100.00
67840;BME280;54636;51.684;5.142;2023-05-23T05:22:35;102154.63;;;12.91;100.00
67840;BME280;54636;51.684;5.142;2023-05-23T05:25:07;102162.53;;;12.89;100.00
67840;BME280;54636;51.684;5.142;2023-05-23T05:27:39;102159.81;;;12.89;100.00
67840;BME280;54636;51.684;5.142;2023-05-23T05:30:08;102165.72;;;12.87;100.00
67840;BME280;54636;51.684;5.142;2023-05-23T05:32:33;102169.38;;;12.84;100.00
67840;BME280;54636;51.684;5.142;2023-05-23T05:34:59;102162.47;;;12.74;100.00
67840;BME280;54636;51.684;5.142;2023-05-23T05:37:25;102177.00;;;12.71;100.00
67840;BME280;54636;51.684;5.142;2023-05-23T05:39:51;102184.44;;;12.70;100.00
67840;BME280;54636;51.684;5.142;2023-05-23T05:42:18;102172.94;;;12.66;100.00
67840;BME280;54636;51.684;5.142;2023-05-23T05:44:44;102170.84;;;12.61;100.00
67840;BME280;54636;51.684;5.142;2023-05-23T05:47:09;102180.38;;;12.66;100.00
67840;BME280;54636;51.684;5.142;2023-05-23T05:49:35;102200.50;;;12.68;100.00
67840;BME280;54636;51.684;5.142;2023-05-23T05:52:00;102191.44;;;12.62;100.00
67840;BME280;54636;51.684;5.142;2023-05-23T05:54:26;102204.28;;;12.71;100.00
67840;BME280;54636;51.684;5.142;2023-05-23T05:56:51;102216.53;;;12.75;100.00
67840;BME280;54636;51.684;5.142;2023-05-23T05:59:16;102210.78;;;12.73;100.00
67840;BME280;54636;51.684;5.142;2023-05-23T06:01:42;102204.69;;;12.78;100.00
67840;BME280;54636;51.684;5.142;2023-05-23T06:04:09;102204.56;;;12.73;100.00
67840;BME280;54636;51.684;5.142;2023-05-23T06:06:34;102211.81;;;12.76;100.00
67840;BME280;54636;51.684;5.142;2023-05-23T06:09:00;102206.84;;;12.74;100.00
67840;BME280;54636;51.684;5.142;2023-05-23T06:11:25;102211.28;;;12.63;100.00
67840;BME280;54636;51.684;5.142;2023-05-23T06:13:50;102219.13;;;12.70;100.00
67840;BME280;54636;51.684;5.142;2023-05-23T06:16:16;102225.28;;;12.79;100.00
67840;BME280;54636;51.684;5.142;2023-05-23T06:18:41;102222.41;;;12.83;100.00
67840;BME280;54636;51.684;5.142;2023-05-23T06:21:07;102228.59;;;12.83;98.27
67840;BME280;54636;51.684;5.142;2023-05-23T06:23:33;102216.53;;;12.75;97.47
67840;BME280;54636;51.684;5.142;2023-05-23T06:25:58;102216.69;;;12.72;97.69
67840;BME280;54636;51.684;5.142;2023-05-23T06:28:24;102229.53;;;12.80;97.68
67840;BME280;54636;51.684;5.142;2023-05-23T06:30:50;102233.47;;;12.79;94.53
67840;BME280;54636;51.684;5.142;2023-05-23T06:33:15;102239.06;;;12.85;94.29
67840;BME280;54636;51.684;5.142;2023-05-23T06:35:41;102236.50;;;12.81;93.69
67840;BME280;54636;51.684;5.142;2023-05-23T06:38:07;102234.81;;;12.84;93.00
67840;BME280;54636;51.684;5.142;2023-05-23T06:40:32;102235.41;;;13.12;91.67
67840;BME280;54636;51.684;5.142;2023-05-23T06:42:57;102232.16;;;13.32;91.08
67840;BME280;54636;51.684;5.142;2023-05-23T06:45:23;102239.69;;;13.61;88.42
67840;BME280;54636;51.684;5.142;2023-05-23T06:47:48;102237.16;;;13.72;86.76
67840;BME280;54636;51.684;5.142;2023-05-23T06:50:14;102243.47;;;13.78;87.21
67840;BME280;54636;51.684;5.142;2023-05-23T06:52:39;102244.03;;;13.82;86.04
67840;BME280;54636;51.684;5.142;2023-05-23T06:55:07;102246.66;;;13.76;83.93
67840;BME280;54636;51.684;5.142;2023-05-23T06:57:32;102242.41;;;13.61;84.72
67840;BME280;54636;51.684;5.142;2023-05-23T06:59:58;102252.94;;;13.68;85.07
67840;BME280;54636;51.684;5.142;2023-05-23T07:02:23;102259.09;;;13.63;84.76
67840;BME280;54636;51.684;5.142;2023-05-23T07:04:48;102260.81;;;13.51;85.86
67840;BME280;54636;51.684;5.142;2023-05-23T07:07:14;102266.97;;;13.37;85.92
67840;BME280;54636;51.684;5.142;2023-05-23T07:09:39;102275.16;;;13.37;86.06
67840;BME280;54636;51.684;5.142;2023-05-23T07:12:05;102265.59;;;13.41;86.29
67840;BME280;54636;51.684;5.142;2023-05-23T07:14:31;102266.88;;;13.31;85.97
67840;BME280;54636;51.684;5.142;2023-05-23T07:16:56;102280.09;;;13.24;86.64
67840;BME280;54636;51.684;5.142;2023-05-23T07:19:21;102283.06;;;13.35;86.80
67840;BME280;54636;51.684;5.142;2023-05-23T07:21:47;102283.81;;;13.35;86.37
67840;BME280;54636;51.684;5.142;2023-05-23T07:24:12;102291.97;;;13.44;85.59
67840;BME280;54636;51.684;5.142;2023-05-23T07:26:38;102297.75;;;13.37;83.48
67840;BME280;54636;51.684;5.142;2023-05-23T07:29:04;102282.47;;;13.31;82.60
67840;BME280;54636;51.684;5.142;2023-05-23T07:31:30;102276.31;;;13.21;82.43
67840;BME280;54636;51.684;5.142;2023-05-23T07:33:55;102282.84;;;13.14;83.42
67840;BME280;54636;51.684;5.142;2023-05-23T07:36:20;102295.84;;;13.29;84.45
67840;BME280;54636;51.684;5.142;2023-05-23T07:38:46;102297.59;;;13.41;82.94
67840;BME280;54636;51.684;5.142;2023-05-23T07:41:12;102300.19;;;13.35;83.09
67840;BME280;54636;51.684;5.142;2023-05-23T07:43:37;102295.50;;;13.36;83.43
67840;BME280;54636;51.684;5.142;2023-05-23T07:46:02;102297.00;;;13.37;83.82
67840;BME280;54636;51.684;5.142;2023-05-23T07:48:28;102292.47;;;13.34;84.34
67840;BME280;54636;51.684;5.142;2023-05-23T07:50:53;102304.16;;;13.34;84.36
67840;BME280;54636;51.684;5.142;2023-05-23T07:53:20;102291.84;;;13.39;84.43
67840;BME280;54636;51.684;5.142;2023-05-23T07:55:46;102297.13;;;13.42;84.42
67840;BME280;54636;51.684;5.142;2023-05-23T07:58:11;102307.22;;;13.51;84.64
67840;BME280;54636;51.684;5.142;2023-05-23T08:00:37;102303.16;;;13.46;85.29
67840;BME280;54636;51.684;5.142;2023-05-23T08:03:03;102310.38;;;13.59;85.77
67840;BME280;54636;51.684;5.142;2023-05-23T08:05:29;102309.25;;;13.65;84.89
67840;BME280;54636;51.684;5.142;2023-05-23T08:07:54;102307.47;;;13.62;86.08
67840;BME280;54636;51.684;5.142;2023-05-23T08:10:20;102302.41;;;13.46;87.38
67840;BME280;54636;51.684;5.142;2023-05-23T08:12:45;102299.22;;;13.47;88.18
67840;BME280;54636;51.684;5.142;2023-05-23T08:15:10;102313.63;;;13.48;88.95
67840;BME280;54636;51.684;5.142;2023-05-23T08:17:36;102321.06;;;13.47;90.54
67840;BME280;54636;51.684;5.142;2023-05-23T08:20:02;102315.94;;;13.40;91.36
67840;BME280;54636;51.684;5.142;2023-05-23T08:22:29;102315.88;;;13.49;91.97
67840;BME280;54636;51.684;5.142;2023-05-23T08:24:54;102318.00;;;13.69;91.71
67840;BME280;54636;51.684;5.142;2023-05-23T08:27:21;102311.44;;;14.00;89.10
67840;BME280;54636;51.684;5.142;2023-05-23T08:29:47;102314.09;;;14.09;85.91
67840;BME280;54636;51.684;5.142;2023-05-23T08:32:13;102317.50;;;14.18;86.60
67840;BME280;54636;51.684;5.142;2023-05-23T08:34:39;102321.91;;;14.31;85.41
67840;BME280;54636;51.684;5.142;2023-05-23T08:37:04;102314.06;;;14.62;83.37
67840;BME280;54636;51.684;5.142;2023-05-23T08:39:30;102309.78;;;14.91;76.98
67840;BME280;54636;51.684;5.142;2023-05-23T08:41:55;102316.91;;;15.03;74.19
67840;BME280;54636;51.684;5.142;2023-05-23T08:44:21;102305.31;;;15.08;73.18
67840;BME280;54636;51.684;5.142;2023-05-23T08:46:47;102315.47;;;15.22;71.85
67840;BME280;54636;51.684;5.142;2023-05-23T08:49:17;102321.66;;;15.37;71.00
67840;BME280;54636;51.684;5.142;2023-05-23T08:51:42;102306.78;;;15.59;71.89
67840;BME280;54636;51.684;5.142;2023-05-23T08:54:09;102331.16;;;15.42;69.71
67840;BME280;54636;51.684;5.142;2023-05-23T08:56:37;102324.03;;;15.30;71.15
67840;BME280;54636;51.684;5.142;2023-05-23T08:59:03;102316.09;;;15.32;72.81
67840;BME280;54636;51.684;5.142;2023-05-23T09:01:29;102326.81;;;15.50;73.16
67840;BME280;54636;51.684;5.142;2023-05-23T09:03:57;102320.56;;;15.49;71.27
67840;BME280;54636;51.684;5.142;2023-05-23T09:06:28;102333.22;;;15.47;69.74
67840;BME280;54636;51.684;5.142;2023-05-23T09:08:54;102338.44;;;15.45;69.18
67840;BME280;54636;51.684;5.142;2023-05-23T09:11:19;102339.09;;;15.40;68.24
67840;BME280;54636;51.684;5.142;2023-05-23T09:13:46;102342.41;;;15.44;68.64
67840;BME280;54636;51.684;5.142;2023-05-23T09:16:16;102328.31;;;15.71;68.12
67840;BME280;54636;51.684;5.142;2023-05-23T09:18:43;102341.22;;;15.86;67.00
67840;BME280;54636;51.684;5.142;2023-05-23T09:21:10;102340.44;;;15.85;65.91
67840;BME280;54636;51.684;5.142;2023-05-23T09:23:38;102339.50;;;15.88;66.96
67840;BME280;54636;51.684;5.142;2023-05-23T09:26:05;102341.81;;;15.95;65.31
67840;BME280;54636;51.684;5.142;2023-05-23T09:28:32;102349.28;;;15.95;65.60
67840;BME280;54636;51.684;5.142;2023-05-23T09:31:01;102340.31;;;15.94;65.04
67840;BME280;54636;51.684;5.142;2023-05-23T09:33:42;102348.94;;;15.87;66.18
67840;BME280;54636;51.684;5.142;2023-05-23T09:36:09;102342.84;;;15.98;63.84
67840;BME280;54636;51.684;5.142;2023-05-23T09:38:40;102342.00;;;16.12;64.54
67840;BME280;54636;51.684;5.142;2023-05-23T09:41:06;102340.22;;;16.35;62.01
67840;BME280;54636;51.684;5.142;2023-05-23T09:43:32;102347.66;;;16.55;62.13
67840;BME280;54636;51.684;5.142;2023-05-23T09:46:09;102345.44;;;16.59;61.76
67840;BME280;54636;51.684;5.142;2023-05-23T09:48:35;102341.91;;;16.53;61.81
67840;BME280;54636;51.684;5.142;2023-05-23T09:51:08;102338.47;;;16.84;61.97
67840;BME280;54636;51.684;5.142;2023-05-23T09:53:34;102351.72;;;16.91;60.91
67840;BME280;54636;51.684;5.142;2023-05-23T09:56:01;102343.28;;;17.00;61.05
67840;BME280;54636;51.684;5.142;2023-05-23T09:58:27;102331.59;;;17.05;60.26
67840;BME280;54636;51.684;5.142;2023-05-23T10:00:59;102344.09;;;17.06;58.96
67840;BME280;54636;51.684;5.142;2023-05-23T10:03:38;102347.72;;;16.92;55.49
67840;BME280;54636;51.684;5.142;2023-05-23T10:06:13;102346.91;;;16.80;56.65
67840;BME280;54636;51.684;5.142;2023-05-23T10:08:49;102345.25;;;16.94;58.64
67840;BME280;54636;51.684;5.142;2023-05-23T10:14:01;102359.44;;;16.87;59.67
67840;BME280;54636;51.684;5.142;2023-05-23T10:16:39;102364.44;;;16.88;59.77
67840;BME280;54636;51.684;5.142;2023-05-23T10:21:55;102371.13;;;16.82;56.86
67840;BME280;54636;51.684;5.142;2023-05-23T10:24:23;102366.28;;;16.71;55.65
67840;BME280;54636;51.684;5.142;2023-05-23T10:26:50;102361.97;;;16.96;57.22
67840;BME280;54636;51.684;5.142;2023-05-23T10:29:16;102364.00;;;17.32;55.18
67840;BME280;54636;51.684;5.142;2023-05-23T10:31:42;102366.97;;;17.71;54.66
67840;BME280;54636;51.684;5.142;2023-05-23T10:34:16;102358.22;;;17.73;52.89
67840;BME280;54636;51.684;5.142;2023-05-23T10:36:58;102356.56;;;17.44;55.08
67840;BME280;54636;51.684;5.142;2023-05-23T10:40:02;102361.25;;;17.32;56.82
67840;BME280;54636;51.684;5.142;2023-05-23T10:45:17;102361.22;;;17.27;51.80
67840;BME280;54636;51.684;5.142;2023-05-23T10:47:43;102372.00;;;17.36;52.02
67840;BME280;54636;51.684;5.142;2023-05-23T10:50:13;102365.50;;;17.33;52.32
67840;BME280;54636;51.684;5.142;2023-05-23T10:52:41;102365.75;;;17.35;51.31
67840;BME280;54636;51.684;5.142;2023-05-23T10:55:14;102376.28;;;17.05;51.77
67840;BME280;54636;51.684;5.142;2023-05-23T10:57:42;102365.38;;;17.17;52.23
67840;BME280;54636;51.684;5.142;2023-05-23T11:00:15;102357.59;;;17.47;51.85
67840;BME280;54636;51.684;5.142;2023-05-23T11:03:04;102354.47;;;17.70;53.14
67840;BME280;54636;51.684;5.142;2023-05-23T11:05:33;102371.88;;;17.62;52.72
67840;BME280;54636;51.684;5.142;2023-05-23T11:08:12;102373.03;;;17.38;49.74
67840;BME280;54636;51.684;5.142;2023-05-23T11:10:52;102361.38;;;17.55;51.30
67840;BME280;54636;51.684;5.142;2023-05-23T11:13:19;102360.53;;;17.86;49.97
67840;BME280;54636;51.684;5.142;2023-05-23T11:15:46;102355.28;;;17.88;50.22
67840;BME280;54636;51.684;5.142;2023-05-23T11:18:27;102365.78;;;17.89;52.12
67840;BME280;54636;51.684;5.142;2023-05-23T11:20:57;102373.19;;;17.66;51.34
67840;BME280;54636;51.684;5.142;2023-05-23T11:23:38;102360.00;;;17.33;51.07
67840;BME280;54636;51.684;5.142;2023-05-23T11:36:10;102371.13;;;18.21;50.62
67840;BME280;54636;51.684;5.142;2023-05-23T11:45:21;102379.13;;;18.13;49.58
67840;BME280;54636;51.684;5.142;2023-05-23T11:47:46;102372.56;;;17.94;47.36
67840;BME280;54636;51.684;5.142;2023-05-23T11:50:11;102375.50;;;17.85;48.33
67840;BME280;54636;51.684;5.142;2023-05-23T11:52:37;102382.66;;;17.65;50.40
67840;BME280;54636;51.684;5.142;2023-05-23T11:55:02;102382.59;;;17.60;50.29
67840;BME280;54636;51.684;5.142;2023-05-23T11:57:29;102370.63;;;17.63;51.08
67840;BME280;54636;51.684;5.142;2023-05-23T11:59:54;102354.31;;;17.42;49.48
67840;BME280;54636;51.684;5.142;2023-05-23T12:02:20;102375.28;;;17.40;50.40
67840;BME280;54636;51.684;5.142;2023-05-23T12:04:47;102376.25;;;17.37;52.01
67840;BME280;54636;51.684;5.142;2023-05-23T12:07:13;102361.22;;;17.27;53.09
67840;BME280;54636;51.684;5.142;2023-05-23T12:09:43;102385.94;;;17.27;51.54
67840;BME280;54636;51.684;5.142;2023-05-23T12:12:09;102384.53;;;17.05;52.77
67840;BME280;54636;51.684;5.142;2023-05-23T12:14:35;102387.47;;;17.02;52.00
67840;BME280;54636;51.684;5.142;2023-05-23T12:17:03;102386.22;;;17.34;51.05
67840;BME280;54636;51.684;5.142;2023-05-23T12:19:29;102379.56;;;17.47;51.22
67840;BME280;54636;51.684;5.142;2023-05-23T12:21:55;102379.47;;;17.30;49.62
67840;BME280;54636;51.684;5.142;2023-05-23T12:24:21;102396.91;;;17.27;48.87
67840;BME280;54636;51.684;5.142;2023-05-23T12:26:52;102389.72;;;17.35;50.06
67840;BME280;54636;51.684;5.142;2023-05-23T12:29:27;102387.22;;;17.74;50.21
67840;BME280;54636;51.684;5.142;2023-05-23T12:31:52;102394.56;;;17.99;49.65
67840;BME280;54636;51.684;5.142;2023-05-23T12:34:19;102394.53;;;17.88;50.13
67840;BME280;54636;51.684;5.142;2023-05-23T12:36:44;102402.47;;;17.81;51.02
67840;BME280;54636;51.684;5.142;2023-05-23T12:39:10;102403.75;;;17.85;52.09
67840;BME280;54636;51.684;5.142;2023-05-23T12:41:36;102399.81;;;17.97;51.18
67840;BME280;54636;51.684;5.142;2023-05-23T12:44:02;102384.66;;;18.30;50.27
67840;BME280;54636;51.684;5.142;2023-05-23T12:46:28;102392.44;;;18.48;48.26
67840;BME280;54636;51.684;5.142;2023-05-23T12:48:53;102399.91;;;18.20;48.72
67840;BME280;54636;51.684;5.142;2023-05-23T12:51:19;102395.50;;;17.85;47.51
67840;BME280;54636;51.684;5.142;2023-05-23T12:53:45;102392.41;;;17.66;49.79
67840;BME280;54636;51.684;5.142;2023-05-23T12:56:10;102389.84;;;18.05;49.63
67840;BME280;54636;51.684;5.142;2023-05-23T12:58:36;102360.16;;;18.43;46.90
67840;BME280;54636;51.684;5.142;2023-05-23T13:01:02;102375.47;;;18.89;43.87
67840;BME280;54636;51.684;5.142;2023-05-23T13:03:28;102357.94;;;19.03;43.84
67840;BME280;54636;51.684;5.142;2023-05-23T13:05:58;102361.47;;;18.92;43.48
67840;BME280;54636;51.684;5.142;2023-05-23T13:08:25;102378.00;;;18.75;44.42
67840;BME280;54636;51.684;5.142;2023-05-23T13:10:52;102381.94;;;18.41;45.60
67840;BME280;54636;51.684;5.142;2023-05-23T13:13:18;102391.63;;;18.25;46.84
67840;BME280;54636;51.684;5.142;2023-05-23T13:15:43;102364.09;;;18.03;46.95